createdAt,value
2023-03-22T00:01:20.983Z,79.60
2023-03-22T00:03:50.104Z,79.80
2023-03-22T00:06:17.944Z,79.80
2023-03-22T00:08:45.775Z,79.60
2023-03-22T00:11:13.267Z,79.50
2023-03-22T00:13:42.995Z,79.50
2023-03-22T00:16:11.098Z,79.40
2023-03-22T00:18:38.273Z,79.60
2023-03-22T00:21:06.102Z,79.50
2023-03-22T00:23:33.209Z,79.60
2023-03-22T00:26:00.367Z,79.40
2023-03-22T00:28:27.531Z,79.40
2023-03-22T00:31:05.308Z,79.20
2023-03-22T00:33:33.485Z,79.40
2023-03-22T00:36:08.291Z,79.40
2023-03-22T00:38:42.853Z,79.50
2023-03-22T00:41:16.272Z,79.20
2023-03-22T00:43:46.380Z,79.20
2023-03-22T00:46:16.192Z,79.40
2023-03-22T00:48:43.838Z,79.40
2023-03-22T00:51:12.609Z,79.40
2023-03-22T00:53:42.990Z,79.20
2023-03-22T00:56:16.143Z,79.20
2023-03-22T00:58:56.049Z,79.20
2023-03-22T01:01:23.534Z,79.30
2023-03-22T01:03:50.963Z,79.30
2023-03-22T01:06:18.316Z,79.50
2023-03-22T01:08:46.123Z,79.40
2023-03-22T01:11:13.289Z,79.40
2023-03-22T01:13:41.930Z,79.40
2023-03-22T01:16:10.474Z,79.40
2023-03-22T01:18:38.113Z,79.50
2023-03-22T01:21:06.430Z,79.40
2023-03-22T01:23:34.324Z,79.30
2023-03-22T01:26:02.094Z,79.20
2023-03-22T01:28:29.864Z,79.00
2023-03-22T01:31:01.282Z,79.10
2023-03-22T01:33:28.776Z,79.20
2023-03-22T01:35:56.116Z,79.10
2023-03-22T01:38:23.761Z,78.90
2023-03-22T01:40:57.771Z,78.80
2023-03-22T01:43:26.166Z,78.80
2023-03-22T01:45:54.733Z,78.90
2023-03-22T01:48:33.644Z,78.90
2023-03-22T01:51:10.527Z,78.70
2023-03-22T01:53:52.416Z,78.50
2023-03-22T01:56:25.836Z,78.60
2023-03-22T01:58:55.112Z,78.60
2023-03-22T02:01:28.693Z,78.60
2023-03-22T02:04:12.323Z,78.60
2023-03-22T02:06:40.492Z,78.50
2023-03-22T02:09:18.189Z,78.50
2023-03-22T02:11:55.087Z,78.60
2023-03-22T02:15:35.336Z,78.50
2023-03-22T02:20:42.941Z,78.30
2023-03-22T02:24:03.318Z,78.00
2023-03-22T02:26:44.078Z,77.80
2023-03-22T02:29:30.165Z,77.80
2023-03-22T02:32:23.747Z,77.40
2023-03-22T02:35:08.988Z,77.20
2023-03-22T02:38:27.432Z,77.10
2023-03-22T02:41:04.614Z,77.10
2023-03-22T02:43:38.854Z,77.20
2023-03-22T02:47:16.843Z,77.20
2023-03-22T02:50:08.697Z,77.20
2023-03-22T02:53:16.542Z,77.30
2023-03-22T02:55:58.846Z,77.10
2023-03-22T02:58:47.344Z,77.20
2023-03-22T03:01:30.557Z,77.20
2023-03-22T03:04:04.809Z,77.40
2023-03-22T03:06:39.878Z,77.30
2023-03-22T03:09:08.241Z,77.30
2023-03-22T03:11:36.643Z,77.10
2023-03-22T03:14:04.844Z,76.80
2023-03-22T03:16:36.743Z,76.50
2023-03-22T03:19:19.901Z,76.40
2023-03-22T03:21:55.997Z,76.60
2023-03-22T03:24:35.628Z,76.50
2023-03-22T03:27:16.984Z,76.50
2023-03-22T03:30:06.990Z,76.60
2023-03-22T03:32:59.352Z,76.60
2023-03-22T03:35:55.222Z,76.70
2023-03-22T03:38:30.051Z,77.00
2023-03-22T03:41:22.977Z,77.10
2023-03-22T03:43:51.550Z,77.30
2023-03-22T03:46:18.921Z,77.30
2023-03-22T03:48:49.829Z,77.40
2023-03-22T03:51:16.938Z,77.50
2023-03-22T03:53:44.267Z,77.50
2023-03-22T03:56:11.845Z,77.60
2023-03-22T03:58:44.507Z,77.60
2023-03-22T04:01:11.888Z,77.90
2023-03-22T04:04:02.489Z,78.10
2023-03-22T04:06:36.063Z,78.40
2023-03-22T04:09:09.986Z,78.70
2023-03-22T04:11:41.936Z,78.80
2023-03-22T04:14:09.199Z,78.90
2023-03-22T04:16:36.314Z,78.80
2023-03-22T04:19:03.903Z,78.90
2023-03-22T04:21:31.123Z,79.00
2023-03-22T04:24:01.179Z,79.20
2023-03-22T04:26:32.753Z,79.20
2023-03-22T04:29:11.685Z,79.40
2023-03-22T04:31:44.254Z,79.40
2023-03-22T04:34:19.800Z,79.20
2023-03-22T04:37:02.556Z,79.30
2023-03-22T04:39:50.522Z,79.30
2023-03-22T04:42:31.357Z,79.00
2023-03-22T04:45:12.317Z,79.10
2023-03-22T04:47:40.906Z,79.00
2023-03-22T04:50:09.276Z,79.00
2023-03-22T04:52:44.214Z,78.70
2023-03-22T04:55:11.552Z,78.10
2023-03-22T04:57:38.611Z,78.00
2023-03-22T05:00:08.602Z,77.60
2023-03-22T05:02:41.161Z,77.30
2023-03-22T05:05:16.373Z,77.20
2023-03-22T05:07:44.512Z,77.30
2023-03-22T05:10:11.800Z,76.80
2023-03-22T05:12:39.957Z,77.00
2023-03-22T05:15:29.071Z,77.00
2023-03-22T05:17:56.287Z,77.10
2023-03-22T05:20:24.948Z,76.50
2023-03-22T05:23:06.191Z,76.90
2023-03-22T05:25:34.187Z,76.90
2023-03-22T05:28:01.880Z,76.60
2023-03-22T05:30:50.148Z,76.60
2023-03-22T05:33:31.849Z,76.60
2023-03-22T05:35:59.053Z,76.50
2023-03-22T05:38:29.034Z,76.60
2023-03-22T05:40:59.401Z,76.40
2023-03-22T05:43:26.946Z,76.20
2023-03-22T05:45:54.128Z,76.00
2023-03-22T05:48:43.965Z,75.50
2023-03-22T05:51:18.073Z,75.50
2023-03-22T05:53:49.225Z,75.00
2023-03-22T05:56:24.216Z,75.00
2023-03-22T05:58:55.043Z,74.50
2023-03-22T06:01:23.236Z,75.00
2023-03-22T06:04:08.958Z,74.50
2023-03-22T06:07:08.400Z,74.40
2023-03-22T06:09:57.074Z,74.20
2023-03-22T06:12:29.923Z,74.10
2023-03-22T06:15:04.627Z,73.90
2023-03-22T06:17:50.424Z,74.10
2023-03-22T06:20:22.383Z,74.30
2023-03-22T06:22:55.222Z,74.00
2023-03-22T06:25:23.223Z,74.50
2023-03-22T06:27:50.547Z,74.70
2023-03-22T06:30:19.739Z,75.40
2023-03-22T06:33:09.661Z,75.40
2023-03-22T06:35:39.634Z,75.60
2023-03-22T06:38:09.501Z,75.70
2023-03-22T06:40:38.118Z,75.70
2023-03-22T06:43:07.209Z,75.30
2023-03-22T06:45:36.563Z,75.10
2023-03-22T06:48:05.358Z,75.10
2023-03-22T06:50:45.549Z,75.20
2023-03-22T06:53:15.352Z,75.00
2023-03-22T06:55:44.059Z,75.00
2023-03-22T06:58:14.957Z,75.10
2023-03-22T07:00:42.352Z,74.80
2023-03-22T07:03:09.956Z,73.80
2023-03-22T07:05:46.681Z,74.10
2023-03-22T07:08:13.879Z,74.10
2023-03-22T07:10:51.568Z,74.00
2023-03-22T07:13:21.556Z,73.40
2023-03-22T07:15:50.188Z,73.10
2023-03-22T07:18:35.952Z,72.70
2023-03-22T07:21:03.498Z,73.10
2023-03-22T07:23:30.971Z,72.60
2023-03-22T07:26:04.565Z,72.30
2023-03-22T07:28:34.072Z,71.90
2023-03-22T07:31:11.639Z,72.60
2023-03-22T07:34:00.813Z,72.20
2023-03-22T07:36:31.122Z,72.00
2023-03-22T07:38:58.594Z,71.70
2023-03-22T07:41:30.689Z,72.30
2023-03-22T07:44:18.206Z,71.80
2023-03-22T07:47:34.295Z,70.60
2023-03-22T07:50:32.863Z,71.30
2023-03-22T07:53:03.918Z,70.80
2023-03-22T07:55:31.723Z,70.60
2023-03-22T07:57:59.198Z,70.60
2023-03-22T08:00:27.066Z,71.10
2023-03-22T08:03:13.340Z,71.20
2023-03-22T08:05:58.934Z,71.10
2023-03-22T08:08:26.542Z,70.40
2023-03-22T08:10:53.918Z,70.60
2023-03-22T08:13:21.127Z,70.10
2023-03-22T08:15:48.209Z,70.00
2023-03-22T08:18:15.561Z,69.80
2023-03-22T08:20:45.757Z,70.80
2023-03-22T08:23:19.066Z,70.20
2023-03-22T08:25:47.326Z,70.00
2023-03-22T08:28:15.981Z,69.10
2023-03-22T08:30:48.654Z,68.70
2023-03-22T08:33:16.206Z,68.90
2023-03-22T08:35:45.376Z,69.20
2023-03-22T08:38:12.875Z,69.40
2023-03-22T08:40:48.031Z,68.60
2023-03-22T08:43:21.590Z,68.40
2023-03-22T08:45:48.769Z,68.80
2023-03-22T08:48:19.631Z,68.30
2023-03-22T08:51:06.758Z,68.60
2023-03-22T08:54:00.010Z,68.40
2023-03-22T08:56:48.337Z,68.60
2023-03-22T08:59:26.989Z,67.70
2023-03-22T09:02:20.305Z,68.20
2023-03-22T09:04:48.302Z,68.40
2023-03-22T09:07:17.510Z,68.20
2023-03-22T09:09:48.579Z,68.40
2023-03-22T09:12:15.905Z,67.40
2023-03-22T09:14:43.754Z,66.70
2023-03-22T09:17:11.187Z,67.00
2023-03-22T09:19:38.340Z,67.00
2023-03-22T09:22:05.453Z,67.60
2023-03-22T09:24:41.199Z,67.10
2023-03-22T09:27:08.419Z,66.60
2023-03-22T09:29:35.839Z,66.90
2023-03-22T09:32:07.948Z,66.90
2023-03-22T09:34:37.348Z,66.60
2023-03-22T09:37:04.923Z,67.30
2023-03-22T09:39:44.580Z,67.20
2023-03-22T09:42:43.938Z,67.30
2023-03-22T09:45:41.884Z,67.80
2023-03-22T09:48:20.731Z,68.00
2023-03-22T09:50:53.019Z,67.40
2023-03-22T09:53:23.505Z,68.10
2023-03-22T09:56:09.648Z,67.90
2023-03-22T09:59:05.984Z,68.20
2023-03-22T10:01:51.316Z,69.30
2023-03-22T10:04:53.097Z,69.80
2023-03-22T10:07:34.361Z,70.90
2023-03-22T10:10:18.229Z,70.40
2023-03-22T10:13:10.226Z,71.80
2023-03-22T10:15:49.393Z,72.80
2023-03-22T10:18:37.123Z,71.30
2023-03-22T10:21:05.289Z,74.00
2023-03-22T10:23:54.092Z,74.00
2023-03-22T10:26:47.569Z,74.40
2023-03-22T10:29:22.314Z,74.20
2023-03-22T10:31:49.688Z,74.00
2023-03-22T10:34:31.104Z,74.00
2023-03-22T10:37:01.263Z,73.50
2023-03-22T10:39:42.725Z,74.30
2023-03-22T10:42:19.580Z,74.50
2023-03-22T10:45:09.958Z,74.40
2023-03-22T10:47:54.143Z,74.50
2023-03-22T10:50:37.740Z,75.10
2023-03-22T10:53:22.086Z,75.70
2023-03-22T10:55:49.214Z,75.70
2023-03-22T10:58:22.154Z,75.80
2023-03-22T11:00:53.121Z,75.90
2023-03-22T11:03:36.397Z,75.90
2023-03-22T11:06:17.436Z,76.10
2023-03-22T11:08:47.315Z,74.90
2023-03-22T11:11:27.074Z,75.00
2023-03-22T11:14:02.200Z,75.30
2023-03-22T11:16:31.383Z,74.20
2023-03-22T11:19:02.204Z,73.00
2023-03-22T11:21:33.371Z,72.00
2023-03-22T11:24:07.300Z,71.40
2023-03-22T11:26:40.636Z,72.30
2023-03-22T11:29:19.305Z,71.70
2023-03-22T11:32:00.147Z,71.00
2023-03-22T11:34:30.886Z,72.00
2023-03-22T11:37:01.622Z,71.70
2023-03-22T11:39:29.965Z,72.20
2023-03-22T11:42:01.500Z,71.50
2023-03-22T11:44:35.871Z,72.60
2023-03-22T11:47:04.564Z,73.00
2023-03-22T11:49:39.216Z,72.80
2023-03-22T11:52:21.394Z,73.20
2023-03-22T11:54:49.246Z,73.10
2023-03-22T11:57:28.716Z,73.30
2023-03-22T12:00:14.533Z,72.90
2023-03-22T12:03:09.402Z,72.30
2023-03-22T12:05:40.603Z,71.00
2023-03-22T12:08:32.875Z,71.70
2023-03-22T12:11:08.896Z,72.10
2023-03-22T12:13:59.689Z,72.70
2023-03-22T12:16:46.957Z,72.60
2023-03-22T12:19:44.413Z,72.20
2023-03-22T12:22:21.381Z,72.40
2023-03-22T12:24:48.612Z,72.40
2023-03-22T12:27:48.790Z,72.50
2023-03-22T12:30:25.982Z,72.40
2023-03-22T12:33:06.853Z,73.30
2023-03-22T12:35:36.938Z,73.30
2023-03-22T12:38:35.540Z,73.10
2023-03-22T12:41:07.429Z,73.00
2023-03-22T12:43:49.997Z,73.20
2023-03-22T12:46:35.712Z,72.70
2023-03-22T12:49:48.788Z,73.20
2023-03-22T12:52:56.626Z,72.80
2023-03-22T12:55:27.666Z,73.00
2023-03-22T12:57:55.667Z,72.30
2023-03-22T13:00:45.988Z,72.30
2023-03-22T13:03:16.390Z,73.30
2023-03-22T13:05:46.866Z,72.60
2023-03-22T13:08:22.938Z,72.50
2023-03-22T13:11:05.655Z,73.00
2023-03-22T13:13:43.399Z,72.80
2023-03-22T13:16:13.032Z,73.30
2023-03-22T13:19:00.195Z,73.20
2023-03-22T13:21:30.586Z,73.50
2023-03-22T13:24:10.206Z,72.80
2023-03-22T13:26:52.531Z,72.80
2023-03-22T13:29:38.523Z,73.00
2023-03-22T13:32:30.050Z,72.10
2023-03-22T13:34:57.727Z,72.80
2023-03-22T13:37:35.971Z,72.70
2023-03-22T13:40:15.040Z,73.90
2023-03-22T13:42:42.339Z,75.10
2023-03-22T13:45:33.653Z,76.10
2023-03-22T13:48:29.613Z,76.60
2023-03-22T13:50:58.456Z,76.70
2023-03-22T13:53:30.837Z,77.50
2023-03-22T13:56:04.773Z,77.60
2023-03-22T13:58:53.111Z,77.60
2023-03-22T14:01:47.845Z,78.30
2023-03-22T14:04:22.661Z,78.20
2023-03-22T14:07:08.999Z,77.70
2023-03-22T14:09:49.586Z,77.50
2023-03-22T14:12:25.636Z,77.00
2023-03-22T14:14:58.198Z,77.20
2023-03-22T14:17:48.749Z,76.80
2023-03-22T14:20:25.245Z,76.60
